Time,TemperatureF,DewpointF,PressureIn,WindDirection,WindDirectionDegrees,WindSpeedMPH,WindSpeedGustMPH,Humidity,HourlyPrecipIn,Conditions,Clouds,dailyrainin,SoftwareType,DateUTC
2013-01-30 00:00:00,42.0,42.0,-100.00,North,-999,0.0,0.0,100,-99.99,,,0.00,,2013-01-30 08:00:00,
2013-01-30 00:11:00,42.0,42.0,-100.00,SE,135,3.0,3.0,100,-99.99,,,0.00,,2013-01-30 08:11:00,
2013-01-30 00:42:00,42.0,42.0,-100.00,North,-999,0.0,0.0,100,-99.99,,,0.00,,2013-01-30 08:42:00,
2013-01-30 00:50:00,41.0,41.0,-100.00,North,-999,0.0,0.0,100,-99.99,,,0.00,,2013-01-30 08:50:00,
2013-01-30 01:00:00,41.0,41.0,-100.00,North,-999,0.0,0.0,100,-99.99,,,0.00,,2013-01-30 09:00:00,
2013-01-30 01:11:00,41.0,41.0,-100.00,North,-999,0.0,0.0,100,-99.99,,,0.00,,2013-01-30 09:11:00,
2013-01-30 01:20:00,41.0,41.0,-100.00,North,-999,0.0,0.0,100,-99.99,,,0.00,,2013-01-30 09:20:00,
2013-01-30 01:32:00,41.0,41.0,-100.00,North,-999,0.0,0.0,100,-99.99,,,-99.99,,2013-01-30 09:32:00,
2013-01-30 01:41:00,41.0,41.0,-100.00,North,-999,0.0,0.0,100,-99.99,,,0.00,,2013-01-30 09:41:00,
2013-01-30 01:50:00,41.0,41.0,-100.00,North,-999,0.0,0.0,100,-99.99,,,0.00,,2013-01-30 09:50:00,
2013-01-30 02:00:00,42.0,42.0,-100.00,North,-999,0.0,0.0,100,-99.99,,,0.00,,2013-01-30 10:00:00,
2013-01-30 02:11:00,41.0,41.0,-100.00,North,-999,0.0,0.0,100,-99.99,,,0.00,,2013-01-30 10:11:00,
2013-01-30 02:20:00,42.0,42.0,-100.00,North,-999,0.0,0.0,100,-99.99,,,0.00,,2013-01-30 10:20:00,
2013-01-30 02:41:00,41.0,41.0,-100.00,North,-999,0.0,0.0,100,-99.99,,,0.00,,2013-01-30 10:41:00,
2013-01-30 02:50:00,44.0,44.0,-100.00,SE,135,4.0,4.0,100,-99.99,,,0.00,,2013-01-30 10:50:00,
2013-01-30 03:11:00,42.0,42.0,-100.00,North,-999,0.0,0.0,100,-99.99,,,0.00,,2013-01-30 11:11:00,
2013-01-30 03:30:00,44.0,44.0,-100.00,North,-999,0.0,0.0,100,-99.99,,,0.00,,2013-01-30 11:30:00,
2013-01-30 03:42:00,44.0,44.0,-100.00,SE,135,4.0,4.0,100,-99.99,,,0.00,,2013-01-30 11:42:00,
2013-01-30 04:00:00,42.0,42.0,-100.00,North,-999,0.0,0.0,100,-99.99,,,0.00,,2013-01-30 12:00:00,
2013-01-30 04:02:00,44.0,44.0,-100.00,North,-999,0.0,0.0,100,-99.99,,,-99.99,,2013-01-30 12:02:00,
2013-01-30 04:20:00,42.0,42.0,-100.00,North,-999,0.0,0.0,100,-99.99,,,0.00,,2013-01-30 12:20:00,
2013-01-30 04:30:00,42.0,42.0,-100.00,North,-999,0.0,0.0,100,-99.99,,,0.00,,2013-01-30 12:30:00,
2013-01-30 04:42:00,43.0,43.0,-100.00,North,-999,0.0,0.0,100,-99.99,,,0.00,,2013-01-30 12:42:00,
2013-01-30 04:50:00,42.0,42.0,-100.00,North,-999,0.0,0.0,100,-99.99,,,0.00,,2013-01-30 12:50:00,
2013-01-30 05:00:00,43.0,43.0,-100.00,North,-999,0.0,0.0,100,-99.99,,,0.00,,2013-01-30 13:00:00,
2013-01-30 05:12:00,42.0,42.0,-100.00,North,-999,0.0,0.0,100,-99.99,,,0.00,,2013-01-30 13:12:00,
2013-01-30 05:20:00,42.0,42.0,-100.00,North,-999,0.0,0.0,100,-99.99,,,0.00,,2013-01-30 13:20:00,
2013-01-30 05:42:00,42.0,42.0,-100.00,North,-999,0.0,0.0,100,-99.99,,,0.00,,2013-01-30 13:42:00,
2013-01-30 06:00:00,41.0,41.0,-100.00,North,-999,0.0,0.0,100,-99.99,,,0.00,,2013-01-30 14:00:00,
2013-01-30 06:11:00,42.0,42.0,-100.00,North,-999,0.0,0.0,100,-99.99,,,0.00,,2013-01-30 14:11:00,
2013-01-30 06:20:00,42.0,42.0,-100.00,North,-999,0.0,0.0,100,-99.99,,,0.00,,2013-01-30 14:20:00,
2013-01-30 06:30:00,42.0,42.0,-100.00,North,-999,0.0,0.0,100,-99.99,,,0.00,,2013-01-30 14:30:00,
2013-01-30 06:42:00,42.0,42.0,-100.00,North,-999,0.0,0.0,100,-99.99,,,0.00,,2013-01-30 14:42:00,
2013-01-30 06:50:00,42.0,42.0,-100.00,North,-999,0.0,0.0,100,-99.99,,,0.00,,2013-01-30 14:50:00,
2013-01-30 07:00:00,42.0,42.0,-100.00,North,-999,0.0,0.0,100,-99.99,,,0.00,,2013-01-30 15:00:00,
2013-01-30 07:12:00,42.0,42.0,-100.00,North,-999,0.0,0.0,100,-99.99,,,0.00,,2013-01-30 15:12:00,
2013-01-30 07:20:00,42.0,42.0,-100.00,North,-999,0.0,0.0,100,-99.99,,,0.00,,2013-01-30 15:20:00,
2013-01-30 07:30:00,42.0,42.0,-100.00,North,-999,0.0,0.0,100,-99.99,,,0.00,,2013-01-30 15:30:00,
2013-01-30 07:43:00,42.0,42.0,-100.00,North,-999,0.0,0.0,100,-99.99,,,0.00,,2013-01-30 15:43:00,
2013-01-30 08:00:00,42.0,42.0,-100.00,North,-999,0.0,0.0,100,-99.99,,,0.00,,2013-01-30 16:00:00,
2013-01-30 08:12:00,42.0,42.0,-100.00,North,-999,0.0,0.0,100,-99.99,,,0.00,,2013-01-30 16:12:00,
2013-01-30 08:20:00,43.0,43.0,-100.00,North,-999,0.0,0.0,100,-99.99,,,0.00,,2013-01-30 16:20:00,
2013-01-30 08:30:00,43.0,43.0,-100.00,North,-999,0.0,0.0,100,-99.99,,,-99.99,,2013-01-30 16:30:00,
2013-01-30 08:42:00,42.0,42.0,-100.00,North,-999,0.0,0.0,100,-99.99,,,0.00,,2013-01-30 16:42:00,
2013-01-30 08:50:00,43.0,43.0,-100.00,North,-999,0.0,0.0,100,-99.99,,,0.00,,2013-01-30 16:50:00,
2013-01-30 08:52:00,42.0,42.0,-100.00,North,-999,0.0,0.0,100,-99.99,,,0.00,,2013-01-30 16:52:00,
2013-01-30 09:00:00,43.0,43.0,-100.00,North,-999,0.0,0.0,100,-99.99,,,0.00,,2013-01-30 17:00:00,
2013-01-30 09:12:00,43.0,43.0,-100.00,North,-999,0.0,0.0,100,-99.99,,,0.00,,2013-01-30 17:12:00,
2013-01-30 09:20:00,43.0,43.0,-100.00,North,-999,0.0,0.0,100,-99.99,,,0.00,,2013-01-30 17:20:00,
2013-01-30 09:42:00,43.0,43.0,-100.00,North,-999,0.0,0.0,100,-99.99,,,0.00,,2013-01-30 17:42:00,
2013-01-30 09:50:00,44.0,44.0,-100.00,North,-999,0.0,0.0,100,-99.99,,,0.00,,2013-01-30 17:50:00,
2013-01-30 10:00:00,44.0,44.0,-100.00,North,-999,0.0,0.0,100,-99.99,,,0.00,,2013-01-30 18:00:00,
2013-01-30 10:12:00,43.0,43.0,-100.00,North,-999,0.0,0.0,100,-99.99,,,0.00,,2013-01-30 18:12:00,
2013-01-30 10:20:00,45.0,45.0,-100.00,North,-999,0.0,0.0,100,-99.99,,,0.00,,2013-01-30 18:20:00,
2013-01-30 10:30:00,45.0,45.0,-100.00,South,180,5.0,5.0,100,-99.99,,,0.00,,2013-01-30 18:30:00,
2013-01-30 10:42:00,44.0,44.0,-100.00,North,-999,0.0,0.0,100,-99.99,,,0.00,,2013-01-30 18:42:00,
2013-01-30 10:50:00,46.0,46.0,-100.00,North,-999,0.0,0.0,100,-99.99,,,0.00,,2013-01-30 18:50:00,
2013-01-30 11:00:00,47.0,47.0,-100.00,North,-999,0.0,0.0,100,-99.99,,,0.00,,2013-01-30 19:00:00,
2013-01-30 11:10:00,47.0,47.0,-100.00,North,-999,0.0,0.0,100,-99.99,,,-99.99,,2013-01-30 19:10:00,
2013-01-30 11:12:00,45.0,45.0,-100.00,North,-999,0.0,0.0,100,-99.99,,,0.00,,2013-01-30 19:12:00,
2013-01-30 11:30:00,48.0,48.0,-100.00,North,-999,0.0,0.0,100,-99.99,,,0.00,,2013-01-30 19:30:00,
2013-01-30 11:40:00,48.0,48.0,-100.00,North,-999,0.0,0.0,100,-99.99,,,0.00,,2013-01-30 19:40:00,
2013-01-30 11:42:00,46.0,46.0,-100.00,North,-999,0.0,0.0,100,-99.99,,,0.00,,2013-01-30 19:42:00,
2013-01-30 12:00:00,48.0,48.0,-100.00,North,-999,0.0,0.0,100,-99.99,,,0.00,,2013-01-30 20:00:00,
2013-01-30 12:10:00,48.0,48.0,-100.00,North,-999,0.0,0.0,100,-99.99,,,-99.99,,2013-01-30 20:10:00,
2013-01-30 12:40:00,48.0,48.0,-100.00,North,-999,0.0,0.0,100,-99.99,,,-99.99,,2013-01-30 20:40:00,
2013-01-30 12:53:00,48.0,48.0,-100.00,North,-999,0.0,0.0,100,-99.99,,,0.00,,2013-01-30 20:53:00,
2013-01-30 13:00:00,48.0,48.0,-100.00,North,-999,0.0,0.0,100,-99.99,,,0.00,,2013-01-30 21:00:00,
2013-01-30 13:30:00,48.0,48.0,-100.00,North,-999,0.0,0.0,100,-99.99,,,0.00,,2013-01-30 21:30:00,
2013-01-30 14:00:00,48.0,48.0,-100.00,North,-999,0.0,0.0,100,-99.99,,,0.00,,2013-01-30 22:00:00,
2013-01-30 14:10:00,48.0,48.0,-100.00,North,-999,0.0,0.0,100,-99.99,,,-99.99,,2013-01-30 22:10:00,
2013-01-30 14:30:00,47.0,47.0,-100.00,SE,135,8.0,8.0,100,-99.99,,,-99.99,,2013-01-30 22:30:00,
2013-01-30 14:40:00,47.0,47.0,-100.00,SE,135,7.0,7.0,100,-99.99,,,0.00,,2013-01-30 22:40:00,
2013-01-30 15:00:00,47.0,47.0,-100.00,North,-999,0.0,0.0,100,-99.99,,,0.00,,2013-01-30 23:00:00,
2013-01-30 15:30:00,47.0,47.0,-100.00,North,-999,0.0,0.0,100,-99.99,,,0.00,,2013-01-30 23:30:00,
2013-01-30 15:40:00,47.0,47.0,-100.00,North,-999,0.0,0.0,100,-99.99,,,-99.99,,2013-01-30 23:40:00,
2013-01-30 16:00:00,47.0,47.0,-100.00,North,-999,0.0,0.0,100,-99.99,,,0.00,,2013-01-31 00:00:00,
2013-01-30 16:10:00,47.0,47.0,-100.00,North,-999,0.0,0.0,100,-99.99,,,0.00,,2013-01-31 00:10:00,
2013-01-30 16:30:00,47.0,47.0,-100.00,SE,135,12.0,12.0,100,-99.99,,,0.00,,2013-01-31 00:30:00,
2013-01-30 16:40:00,47.0,47.0,-100.00,North,-999,0.0,0.0,100,-99.99,,,-99.99,,2013-01-31 00:40:00,
2013-01-30 17:00:00,46.0,46.0,-100.00,North,-999,0.0,0.0,100,-99.99,,,0.00,,2013-01-31 01:00:00,
2013-01-30 17:10:00,46.0,46.0,-100.00,North,-999,0.0,0.0,100,-99.99,,,-99.99,,2013-01-31 01:10:00,
2013-01-30 17:30:00,46.0,46.0,-100.00,North,-999,0.0,0.0,100,-99.99,,,-99.99,,2013-01-31 01:30:00,
2013-01-30 18:00:00,45.0,45.0,-100.00,North,-999,0.0,0.0,100,-99.99,,,0.00,,2013-01-31 02:00:00,
2013-01-30 18:10:00,45.0,45.0,-100.00,North,-999,0.0,0.0,100,-99.99,,,0.00,,2013-01-31 02:10:00,
2013-01-30 18:30:00,44.0,44.0,-100.00,North,-999,0.0,0.0,100,-99.99,,,0.00,,2013-01-31 02:30:00,
2013-01-30 18:40:00,44.0,44.0,-100.00,North,-999,0.0,0.0,100,-99.99,,,-99.99,,2013-01-31 02:40:00,
2013-01-30 19:00:00,44.0,44.0,-100.00,North,-999,0.0,0.0,100,-99.99,,,0.00,,2013-01-31 03:00:00,
2013-01-30 19:10:00,43.0,43.0,-100.00,North,-999,0.0,0.0,100,-99.99,,,-99.99,,2013-01-31 03:10:00,
2013-01-30 19:30:00,44.0,44.0,-100.00,North,-999,0.0,0.0,100,-99.99,,,0.00,,2013-01-31 03:30:00,
2013-01-30 19:40:00,44.0,44.0,-100.00,North,-999,0.0,0.0,100,-99.99,,,-99.99,,2013-01-31 03:40:00,
2013-01-30 20:00:00,44.0,44.0,-100.00,North,-999,0.0,0.0,100,-99.99,,,0.00,,2013-01-31 04:00:00,
2013-01-30 20:10:00,44.0,44.0,-100.00,North,-999,0.0,0.0,100,-99.99,,,-99.99,,2013-01-31 04:10:00,
2013-01-30 20:22:00,44.0,44.0,-100.00,North,-999,0.0,0.0,100,-99.99,,,0.00,,2013-01-31 04:22:00,
2013-01-30 20:30:00,44.0,44.0,-100.00,North,-999,0.0,0.0,100,-99.99,,,0.00,,2013-01-31 04:30:00,
2013-01-30 20:40:00,44.0,44.0,-100.00,North,-999,0.0,0.0,100,-99.99,,,-99.99,,2013-01-31 04:40:00,
2013-01-30 21:22:00,44.0,44.0,-100.00,North,-999,0.0,0.0,100,-99.99,,,0.00,,2013-01-31 05:22:00,